Terminal Aerodrome Forecast
Issued by NWS

Home | Current Version | Previous Version | Text Only | Print | Product List | Glossary On
Versions: 1 2 3 4 5 6 7 8 9 10 11 12 13 14 15 16 17 18 19 20 21 22 23 24 25
000
FTUS45 KBOU 201133
TAFBJC
TAF
KBJC 201133Z 2012/2112 33006KT P6SM FEW060 SCT200
     FM201400 27008KT P6SM FEW080 SCT140
     FM201700 35013KT P6SM SCT080 BKN140
     FM202000 04010KT P6SM VCSH SCT070 BKN110 PROB30 2021/2024 5SM
      -SHRA BKN070
     FM210100 33011KT P6SM SCT080 BKN120
     FM210400 27008KT P6SM FEW140 SCT220
     FM211000 35008KT P6SM FEW060 SCT080=

USA.gov is the U.S. government's official web portal to all federal, state and local government web resources and services.